Time;durP1;ratioP1;P1;durP2;ratioP2;P2;SDS_P1;SDS_P2;PMS_P1;PMS_P2;Temp;Humidity;BMP_temperature;BMP_pressure;BME280_temperature;BME280_humidity;BME280_pressure;Samples;Min_cycle;Max_cycle;Signal;HPM_P1;HPM_P2
2020/12/28 00:00:44;;;;;;;28.57;13.13;;;;;;;0.84;79.03;98268.48;3754136;77;97914;-82
2020/12/28 00:05:48;;;;;;;27.07;11.47;;;;;;;0.80;79.20;98269.78;3758823;77;33151;-86
2020/12/28 00:10:48;;;;;;;26.33;10.73;;;;;;;0.81;79.67;98269.99;3754501;77;97943;-81
2020/12/28 00:15:49;;;;;;;27.97;11.70;;;;;;;0.85;80.22;98241.05;3759652;77;33221;-81
2020/12/28 00:20:50;;;;;;;24.17;10.27;;;;;;;0.85;80.22;98241.05;3746187;77;98502;-82
2020/12/28 00:25:51;;;;;;;29.90;11.08;;;;;;;0.90;79.90;98241.30;3753632;77;33137;-82
2020/12/28 00:30:52;;;;;;;29.73;11.30;;;;;;;0.90;79.94;98244.80;3754694;74;97980;-83
2020/12/28 00:35:53;;;;;;;26.85;11.22;;;;;;;0.90;79.99;98241.30;3755451;77;32783;-82
2020/12/28 00:40:54;;;;;;;30.83;10.73;;;;;;;0.85;79.82;98236.98;3756006;76;97973;-83
2020/12/28 00:45:55;;;;;;;32.60;12.43;;;;;;;0.82;80.38;98216.64;3744589;77;32819;-82
2020/12/28 00:50:55;;;;;;;34.63;13.65;;;;;;;0.81;80.32;98218.55;3747858;77;97871;-82
2020/12/28 00:55:57;;;;;;;31.27;13.03;;;;;;;0.81;80.43;98222.61;3762177;77;27517;-84
2020/12/28 01:00:58;;;;;;;28.47;12.43;;;;;;;0.82;80.56;98220.70;3727039;77;98123;-83
2020/12/28 01:05:59;;;;;;;31.90;15.00;;;;;;;0.81;80.71;98197.45;3753424;77;98061;-83
2020/12/28 01:11:00;;;;;;;29.70;11.23;;;;;;;0.82;80.88;98196.34;3684225;78;26424;-82
2020/12/28 01:16:01;;;;;;;30.50;12.40;;;;;;;0.82;80.98;98176.80;3690000;77;98428;-83
2020/12/28 01:21:03;;;;;;;28.50;12.37;;;;;;;0.84;81.05;98185.91;3758227;77;26452;-83
2020/12/28 01:26:04;;;;;;;28.10;11.97;;;;;;;0.86;81.32;98165.45;3771023;75;98113;-83
2020/12/28 01:31:07;;;;;;;24.23;9.87;;;;;;;0.90;81.44;98166.28;3766454;77;25921;-82
2020/12/28 01:36:11;;;;;;;27.27;12.80;;;;;;;0.95;81.34;98152.42;3742346;77;98350;-83
2020/12/28 01:41:12;;;;;;;28.97;11.33;;;;;;;1.00;81.60;98147.24;3754879;77;26660;-82
2020/12/28 01:46:13;;;;;;;24.20;9.67;;;;;;;1.02;81.69;98141.66;3738920;77;107211;-83
2020/12/28 01:51:14;;;;;;;28.57;11.57;;;;;;;1.06;81.62;98143.84;3762170;77;25881;-83
2020/12/28 01:56:16;;;;;;;26.37;10.03;;;;;;;0.99;82.46;98105.83;3757151;77;98736;-81
2020/12/28 02:01:18;;;;;;;23.00;10.23;;;;;;;0.99;82.46;98105.83;3740734;77;28274;-84
2020/12/28 02:06:18;;;;;;;22.05;11.20;;;;;;;1.16;82.44;98123.44;3755707;77;98717;-81
2020/12/28 02:11:19;;;;;;;21.17;9.30;;;;;;;1.21;82.40;98108.97;3759874;77;26166;-82
2020/12/28 02:16:20;;;;;;;24.27;9.80;;;;;;;1.27;82.47;98112.14;3745205;76;97983;-82
2020/12/28 02:21:22;;;;;;;26.30;9.93;;;;;;;1.33;82.83;98105.23;3738023;77;25906;-83
2020/12/28 02:26:23;;;;;;;26.87;10.20;;;;;;;1.46;82.66;98097.03;3746683;75;98582;-83
2020/12/28 02:31:26;;;;;;;28.77;11.77;;;;;;;1.52;82.84;98093.61;3759795;77;25888;-82
2020/12/28 02:36:27;;;;;;;25.00;12.17;;;;;;;1.55;82.81;98078.53;3745968;77;98431;-83
2020/12/28 02:41:28;;;;;;;29.87;12.67;;;;;;;1.58;82.66;98069.67;3752420;75;26228;-82
2020/12/28 02:46:29;;;;;;;27.75;11.08;;;;;;;1.59;82.91;98059.78;3753626;76;98155;-82
2020/12/28 02:51:29;;;;;;;23.20;10.80;;;;;;;1.65;82.92;98041.26;3765131;77;26507;-83
2020/12/28 02:56:30;;;;;;;21.13;10.30;;;;;;;1.70;82.93;98046.33;3750430;76;98840;-83
2020/12/28 03:01:31;;;;;;;23.70;9.70;;;;;;;1.79;82.90;98024.52;3772802;76;25881;-82
2020/12/28 03:06:35;;;;;;;27.07;10.97;;;;;;;1.87;82.88;98018.56;3773663;75;97806;-82
2020/12/28 03:11:37;;;;;;;21.83;8.93;;;;;;;1.92;82.89;98021.68;3744111;77;25917;-85
2020/12/28 03:16:38;;;;;;;22.30;9.00;;;;;;;1.98;82.92;98007.96;3763140;76;98181;-83
2020/12/28 03:21:39;;;;;;;18.27;7.00;;;;;;;2.09;82.76;98002.62;3743719;77;25959;-81
2020/12/28 03:26:39;;;;;;;22.13;9.30;;;;;;;2.19;82.62;97983.67;3756738;76;97965;-82
2020/12/28 03:31:45;;;;;;;20.48;9.10;;;;;;;2.30;82.57;97979.66;3759771;77;26800;-82
2020/12/28 03:36:45;;;;;;;20.27;8.78;;;;;;;2.37;82.37;97970.19;3745939;75;98385;-83
2020/12/28 03:41:46;;;;;;;15.10;7.17;;;;;;;2.41;82.39;97948.67;3758491;77;26468;-83
2020/12/28 03:46:50;;;;;;;19.57;9.03;;;;;;;2.46;82.34;97923.88;3752023;75;97998;-84
2020/12/28 03:51:51;;;;;;;23.83;10.23;;;;;;;2.56;82.23;97917.70;3752876;77;27449;-82
2020/12/28 03:56:51;;;;;;;20.10;9.07;;;;;;;2.61;82.07;97922.75;3748827;77;98103;-83
2020/12/28 04:01:52;;;;;;;18.30;8.40;;;;;;;2.62;82.14;97918.88;3736616;76;25921;-82
2020/12/28 04:06:53;;;;;;;19.50;8.50;;;;;;;2.67;82.29;97908.23;3745330;77;98545;-81
2020/12/28 04:11:54;;;;;;;19.33;8.60;;;;;;;2.76;82.34;97899.91;3745108;77;26400;-83
2020/12/28 04:16:55;;;;;;;17.07;7.80;;;;;;;2.83;82.23;97909.41;3754166;75;98132;-84
2020/12/28 04:21:56;;;;;;;20.83;8.77;;;;;;;2.88;82.15;97896.02;3755820;77;26302;-84
2020/12/28 04:26:56;;;;;;;18.53;7.73;;;;;;;2.90;82.20;97913.48;3747521;75;97935;-83
2020/12/28 04:31:57;;;;;;;17.87;7.40;;;;;;;2.96;82.25;97894.88;3751288;77;33876;-84
2020/12/28 04:36:58;;;;;;;21.13;8.83;;;;;;;3.05;82.11;97909.61;3747408;75;97881;-83
2020/12/28 04:41:59;;;;;;;20.57;7.80;;;;;;;3.11;81.86;97912.73;3762419;77;33337;-84
2020/12/28 04:47:00;;;;;;;17.70;8.03;;;;;;;3.14;81.86;97914.66;3756011;75;97917;-84
2020/12/28 04:52:02;;;;;;;18.43;8.23;;;;;;;3.09;81.84;97909.61;3767910;77;31082;-83
2020/12/28 04:57:03;;;;;;;20.27;9.48;;;;;;;3.12;81.83;97906.13;3741363;77;98583;-81
2020/12/28 05:02:04;;;;;;;18.10;8.07;;;;;;;3.12;81.78;97871.56;3764281;77;32085;-83
2020/12/28 05:07:07;;;;;;;18.97;7.67;;;;;;;3.11;81.69;97878.77;3753613;75;98095;-83
2020/12/28 05:12:08;;;;;;;18.27;7.00;;;;;;;3.06;81.70;97881.87;3762225;77;33025;-82
2020/12/28 05:17:09;;;;;;;16.13;7.10;;;;;;;3.05;81.93;97874.86;3751008;76;98086;-84
2020/12/28 05:22:10;;;;;;;21.13;8.73;;;;;;;3.11;81.99;97870.02;3773119;77;33082;-82
2020/12/28 05:27:16;;;;;;;19.13;8.50;;;;;;;3.15;81.88;97870.80;3745935;75;98182;-82
2020/12/28 05:32:18;;;;;;;19.73;8.45;;;;;;;3.12;81.88;97849.07;3773366;77;25874;-83
2020/12/28 05:37:19;;;;;;;17.00;7.93;;;;;;;3.02;81.94;97853.36;3755444;77;98162;-82
2020/12/28 05:42:20;;;;;;;27.07;13.37;;;;;;;2.98;82.14;97853.14;3736949;77;33117;-83
2020/12/28 05:47:21;;;;;;;23.50;10.23;;;;;;;2.97;82.14;97855.10;3759955;75;98379;-84
2020/12/28 05:52:23;;;;;;;21.07;8.60;;;;;;;2.93;82.08;97838.59;3759223;77;32925;-84
2020/12/28 05:57:24;;;;;;;24.18;10.28;;;;;;;2.91;82.33;97864.02;3758730;77;98514;-83
2020/12/28 06:02:29;;;;;;;19.03;8.33;;;;;;;2.85;82.28;97864.22;3746476;77;33563;-85
2020/12/28 06:07:31;;;;;;;21.70;8.37;;;;;;;2.84;82.49;97858.00;3770168;77;98099;-83
2020/12/28 06:12:32;;;;;;;23.97;9.67;;;;;;;2.90;82.49;97870.62;3765867;77;33061;-82
2020/12/28 06:17:36;;;;;;;22.47;10.53;;;;;;;2.94;82.35;97875.45;3768647;75;98319;-83
2020/12/28 06:22:37;;;;;;;24.03;9.50;;;;;;;2.93;82.42;97885.55;3764790;75;33011;-83
2020/12/28 06:27:42;;;;;;;20.33;8.17;;;;;;;2.91;82.45;97872.17;3745280;73;97872;-84
2020/12/28 06:32:49;;;;;;;20.90;8.30;;;;;;;2.86;82.61;97882.06;3755184;77;33496;-85
2020/12/28 06:37:53;;;;;;;27.10;13.08;;;;;;;2.90;82.68;97874.70;3768385;73;98423;-82
2020/12/28 06:43:12;;;;;;;21.17;9.07;;;;;;;2.93;82.74;97887.48;3759249;77;32974;-83
2020/12/28 06:48:24;;;;;;;27.30;10.08;;;;;;;2.98;82.68;97887.10;3734637;77;98324;-84
2020/12/28 06:53:26;;;;;;;23.23;8.80;;;;;;;2.94;82.73;97871.38;3765214;77;33047;-84
2020/12/28 06:58:27;;;;;;;23.98;9.43;;;;;;;2.92;82.89;97876.43;3751151;77;98284;-83
2020/12/28 07:03:28;;;;;;;23.37;9.50;;;;;;;2.97;83.01;97878.77;3754661;77;32991;-84
2020/12/28 07:08:32;;;;;;;22.93;8.93;;;;;;;3.01;82.86;97887.69;3765110;76;97901;-83
2020/12/28 07:13:33;;;;;;;20.97;8.80;;;;;;;2.99;82.91;97890.00;3761064;75;32971;-83
2020/12/28 07:18:36;;;;;;;19.43;9.43;;;;;;;2.98;82.96;97880.31;3748992;77;98349;-83
2020/12/28 07:23:37;;;;;;;19.13;7.70;;;;;;;2.92;83.13;97857.42;3757951;77;33354;-84
2020/12/28 07:28:43;;;;;;;17.87;8.37;;;;;;;2.96;83.26;97857.60;3759004;77;97980;-84
2020/12/28 07:33:47;;;;;;;23.50;9.27;;;;;;;3.03;83.35;97854.11;3769782;75;33009;-84
2020/12/28 07:38:49;;;;;;;24.65;10.20;;;;;;;3.08;83.40;97860.52;3754444;75;98402;-84
2020/12/28 07:43:57;;;;;;;23.17;8.63;;;;;;;3.08;83.23;97853.16;3759869;77;33448;-83
2020/12/28 07:49:22;;;;;;;19.23;8.50;;;;;;;3.07;83.45;97852.94;3748978;77;98548;-84
2020/12/28 07:54:26;;;;;;;21.17;8.17;;;;;;;3.14;83.44;97835.30;3766964;77;33955;-83
2020/12/28 07:59:44;;;;;;;22.53;9.03;;;;;;;3.21;83.32;97817.61;3766452;76;97850;-84
2020/12/28 08:04:45;;;;;;;19.57;8.47;;;;;;;3.23;83.29;97815.27;3744332;77;33084;-84
2020/12/28 08:09:55;;;;;;;18.90;7.80;;;;;;;3.25;83.42;97812.16;3761361;76;97861;-84
2020/12/28 08:14:56;;;;;;;17.80;7.70;;;;;;;3.27;83.37;97816.64;3758948;77;33012;-84
2020/12/28 08:20:12;;;;;;;21.13;9.43;;;;;;;3.36;83.42;97814.27;3734172;76;97772;-84
2020/12/28 08:25:13;;;;;;;19.10;9.40;;;;;;;3.45;83.19;97820.08;3744813;77;33463;-83
2020/12/28 08:30:14;;;;;;;22.00;9.47;;;;;;;3.50;83.06;97806.09;3743067;77;97801;-85
2020/12/28 08:35:15;;;;;;;21.37;8.70;;;;;;;3.54;83.06;97819.06;3767368;75;33007;-85
2020/12/28 08:40:19;;;;;;;20.13;8.37;;;;;;;3.54;83.05;97806.83;3749420;75;98206;-83
2020/12/28 08:45:23;;;;;;;18.90;7.73;;;;;;;3.58;83.13;97815.76;3740385;77;32979;-84
2020/12/28 08:50:28;;;;;;;24.45;9.85;;;;;;;3.70;83.03;97803.88;3756346;77;97789;-83
2020/12/28 08:55:29;;;;;;;20.17;10.60;;;;;;;3.83;82.96;97798.77;3764438;75;32936;-84
2020/12/28 09:00:33;;;;;;;22.50;10.90;;;;;;;3.95;82.55;97796.95;3766757;77;97934;-82
2020/12/28 09:05:34;;;;;;;23.37;10.37;;;;;;;4.01;82.62;97795.37;3765077;77;32976;-85
2020/12/28 09:10:35;;;;;;;23.60;9.37;;;;;;;4.07;82.50;97800.58;3757312;76;97935;-83
2020/12/28 09:15:36;;;;;;;21.53;8.70;;;;;;;4.05;82.22;97806.41;3757704;77;32946;-82
2020/12/28 09:20:36;;;;;;;21.23;8.27;;;;;;;4.10;82.42;97797.08;3739072;77;97778;-83
2020/12/28 09:25:37;;;;;;;34.23;14.43;;;;;;;4.22;82.40;97790.59;3754745;76;32638;-82
2020/12/28 09:30:38;;;;;;;28.90;12.13;;;;;;;4.36;82.17;97796.53;3760251;75;98604;-83
2020/12/28 09:35:39;;;;;;;25.70;11.63;;;;;;;4.47;81.85;97797.23;3738647;75;30333;-83
2020/12/28 09:40:40;;;;;;;26.05;12.25;;;;;;;4.50;81.70;97800.50;3768099;77;97934;-84
2020/12/28 09:45:41;;;;;;;23.33;10.90;;;;;;;4.50;81.61;97799.92;3770722;77;31690;-83
2020/12/28 09:50:42;;;;;;;35.60;12.97;;;;;;;4.49;81.54;97796.23;3732687;77;98478;-83
2020/12/28 09:55:42;;;;;;;23.90;10.67;;;;;;;4.47;81.60;97788.46;3769222;77;31763;-83
2020/12/28 10:00:43;;;;;;;19.52;9.13;;;;;;;4.49;81.56;97760.84;3752896;77;97810;-83
2020/12/28 10:05:44;;;;;;;24.40;11.63;;;;;;;4.56;81.76;97762.92;3764591;75;30930;-83
2020/12/28 10:10:45;;;;;;;23.33;10.07;;;;;;;4.64;81.54;97769.09;3738836;77;98375;-85
2020/12/28 10:15:46;;;;;;;20.30;9.97;;;;;;;4.67;81.39;97763.61;3755671;77;28833;-84
2020/12/28 10:20:47;;;;;;;23.40;11.73;;;;;;;4.70;81.52;97769.59;3758548;75;98029;-83
2020/12/28 10:25:48;;;;;;;20.53;10.07;;;;;;;4.72;81.34;97778.73;3763786;77;36116;-86
2020/12/28 10:30:48;;;;;;;25.70;10.93;;;;;;;4.72;81.19;97776.02;3740638;77;98182;-85
2020/12/28 10:35:49;;;;;;;21.60;9.87;;;;;;;4.66;81.26;97778.98;3736957;76;35066;-87
2020/12/28 10:40:50;;;;;;;21.90;9.43;;;;;;;4.68;81.37;97780.70;3736762;75;98279;-84
2020/12/28 10:45:51;;;;;;;19.20;9.10;;;;;;;4.77;81.56;97774.22;3746255;77;35857;-86
2020/12/28 10:50:52;;;;;;;21.77;10.17;;;;;;;4.88;81.34;97768.09;3754817;76;97778;-86
2020/12/28 10:55:53;;;;;;;21.73;9.87;;;;;;;4.97;81.05;97767.80;3755736;77;35581;-86
2020/12/28 11:00:55;;;;;;;22.62;9.93;;;;;;;5.02;81.02;97762.52;3743805;77;98329;-87
2020/12/28 11:05:55;;;;;;;19.33;9.33;;;;;;;4.98;80.77;97750.87;3752232;76;33498;-85
2020/12/28 11:10:57;;;;;;;22.00;10.50;;;;;;;4.96;80.42;97746.42;3756110;76;98076;-85
2020/12/28 11:15:58;;;;;;;22.87;11.47;;;;;;;4.93;80.91;97742.55;3753678;77;32654;-84
2020/12/28 11:20:59;;;;;;;20.67;9.73;;;;;;;4.95;80.87;97737.46;3720939;77;98201;-86
2020/12/28 11:26:01;;;;;;;20.70;10.87;;;;;;;4.98;81.08;97718.95;3732513;77;98250;-86
2020/12/28 11:31:02;;;;;;;20.23;9.13;;;;;;;5.09;80.92;97714.74;3751422;77;32745;-85
2020/12/28 11:36:04;;;;;;;18.73;9.30;;;;;;;5.26;80.92;97723.31;3764755;75;98538;-85
2020/12/28 11:41:05;;;;;;;17.00;9.03;;;;;;;5.40;80.51;97708.91;3752292;77;33186;-84
2020/12/28 11:46:07;;;;;;;18.67;9.57;;;;;;;5.52;80.63;97702.91;3751011;75;98283;-84
2020/12/28 11:51:09;;;;;;;19.13;8.97;;;;;;;5.53;80.14;97700.39;3741177;77;32688;-85
2020/12/28 11:56:13;;;;;;;19.50;8.57;;;;;;;5.49;80.05;97691.47;3729977;75;98195;-84
2020/12/28 12:01:17;;;;;;;21.70;9.53;;;;;;;5.47;80.21;97679.43;3735298;77;32705;-83
2020/12/28 12:06:21;;;;;;;20.37;8.70;;;;;;;5.54;80.09;97669.20;3724849;75;98327;-85
2020/12/28 12:11:22;;;;;;;24.77;11.17;;;;;;;5.56;79.92;97661.98;3757513;77;32819;-86
2020/12/28 12:16:24;;;;;;;28.00;11.00;;;;;;;5.65;80.05;97658.92;3735367;75;98647;-87
2020/12/28 12:21:25;;;;;;;21.83;9.40;;;;;;;5.68;79.77;97663.53;3751324;75;32696;-85
2020/12/28 12:26:27;;;;;;;25.80;10.83;;;;;;;5.64;79.58;97663.41;3747886;77;98078;-87
2020/12/28 12:31:28;;;;;;;23.97;11.73;;;;;;;5.64;79.82;97663.41;3721934;77;33343;-86
2020/12/28 12:36:29;;;;;;;25.57;11.50;;;;;;;5.59;79.66;97674.78;3749891;76;98377;-87
2020/12/28 12:41:30;;;;;;;21.27;9.47;;;;;;;5.52;79.70;97669.43;3745456;77;32644;-86
2020/12/28 12:46:31;;;;;;;20.93;9.37;;;;;;;5.54;80.00;97680.11;3754196;75;98165;-85
2020/12/28 12:51:32;;;;;;;22.27;9.43;;;;;;;5.58;79.77;97690.97;3749312;77;32797;-86
2020/12/28 12:56:33;;;;;;;21.65;10.88;;;;;;;5.65;79.81;97688.92;3715778;77;97938;-85
2020/12/28 13:01:33;;;;;;;23.07;11.23;;;;;;;5.70;79.71;97695.88;3740807;77;32739;-88
2020/12/28 13:06:34;;;;;;;23.60;12.83;;;;;;;5.69;79.59;97701.15;3769940;76;98338;-90
2020/12/28 13:11:35;;;;;;;25.17;12.68;;;;;;;5.66;79.65;97706.84;3746352;77;32627;-88
2020/12/28 13:16:36;;;;;;;24.47;11.40;;;;;;;5.60;79.61;97713.15;3760914;76;98154;-86
2020/12/28 13:21:37;;;;;;;22.67;10.40;;;;;;;5.49;79.61;97709.20;3756118;77;26201;-90
2020/12/28 13:26:38;;;;;;;22.70;9.90;;;;;;;5.47;79.77;97702.61;3728199;77;98184;-88
2020/12/28 13:31:39;;;;;;;21.30;10.17;;;;;;;5.49;79.94;97711.14;3748215;77;25879;-88
2020/12/28 13:36:39;;;;;;;20.80;11.53;;;;;;;5.52;79.87;97722.00;3751383;77;98562;-87
2020/12/28 13:41:41;;;;;;;25.40;11.07;;;;;;;5.57;79.74;97724.28;3743980;77;26681;-88
2020/12/28 13:46:45;;;;;;;22.87;11.57;;;;;;;5.45;79.69;97705.73;3750610;77;98238;-87
2020/12/28 13:51:46;;;;;;;22.27;10.33;;;;;;;5.48;79.51;97725.97;3756064;77;27432;-87
2020/12/28 13:56:54;;;;;;;25.07;12.67;;;;;;;5.44;79.71;97729.32;3755187;75;98753;-86
2020/12/28 14:01:55;;;;;;;24.07;10.43;;;;;;;5.39;79.70;97737.95;3752042;77;27550;-86
2020/12/28 14:06:56;;;;;;;23.00;9.97;;;;;;;5.35;79.79;97727.09;3760160;75;98631;-86
2020/12/28 14:11:57;;;;;;;26.80;10.93;;;;;;;5.35;79.95;97732.54;3758529;77;26437;-84
2020/12/28 14:16:58;;;;;;;36.47;21.03;;;;;;;5.40;79.98;97735.43;3734792;76;98392;-84
2020/12/28 14:21:59;;;;;;;29.53;15.77;;;;;;;5.44;79.90;97729.32;3752270;77;26570;-86
2020/12/28 14:27:00;;;;;;;30.00;15.30;;;;;;;5.46;79.78;97735.91;3742614;76;98639;-85
2020/12/28 14:32:01;;;;;;;33.63;19.73;;;;;;;5.41;79.65;97743.18;3741981;77;26095;-85
2020/12/28 14:37:02;;;;;;;36.10;15.00;;;;;;;5.34;79.66;97757.52;3756896;77;98188;-86
2020/12/28 14:42:03;;;;;;;29.20;15.07;;;;;;;5.23;79.77;97760.94;3756377;77;26154;-86
2020/12/28 14:47:04;;;;;;;27.30;14.00;;;;;;;5.15;79.90;97753.42;3758471;76;98130;-86
2020/12/28 14:52:05;;;;;;;25.73;11.87;;;;;;;5.04;79.99;97749.25;3756777;76;33296;-86
2020/12/28 14:57:06;;;;;;;31.77;14.07;;;;;;;4.91;80.21;97752.30;3744354;77;98552;-86
2020/12/28 15:02:09;;;;;;;38.37;19.03;;;;;;;4.86;80.45;97745.94;3748348;77;32986;-86
2020/12/28 15:07:10;;;;;;;32.37;15.30;;;;;;;4.87;80.62;97736.58;3738695;77;98657;-85
2020/12/28 15:12:11;;;;;;;39.70;20.60;;;;;;;4.92;80.61;97740.23;3745731;77;33599;-86
2020/12/28 15:17:12;;;;;;;47.00;20.93;;;;;;;4.94;80.42;97737.86;3734018;76;98304;-85
2020/12/28 15:22:13;;;;;;;62.20;26.60;;;;;;;4.86;80.35;97732.31;3750502;77;32999;-87
2020/12/28 15:27:14;;;;;;;83.13;28.83;;;;;;;4.79;80.14;97740.53;3743828;77;98437;-85
2020/12/28 15:32:15;;;;;;;88.60;33.47;;;;;;;4.63;80.17;97749.23;3749264;77;33023;-92
2020/12/28 15:37:16;;;;;;;65.70;27.93;;;;;;;4.45;80.44;97751.34;3720271;77;98476;-88
2020/12/28 15:42:18;;;;;;;62.23;27.80;;;;;;;4.20;80.70;97752.09;3761375;77;31206;-87
2020/12/28 15:47:18;;;;;;;52.13;23.20;;;;;;;4.08;81.03;97752.57;3748334;76;98487;-91
2020/12/28 15:52:20;;;;;;;45.57;21.47;;;;;;;3.95;81.31;97746.63;3764182;77;33132;-91
2020/12/28 15:57:21;;;;;;;52.00;21.83;;;;;;;3.93;81.67;97754.42;3756229;77;98644;-90
2020/12/28 16:02:22;;;;;;;38.77;17.53;;;;;;;3.86;81.78;97749.00;3751673;77;31151;-89
2020/12/28 16:07:23;;;;;;;67.37;31.13;;;;;;;3.79;81.99;97749.83;3754990;75;98635;-87
2020/12/28 16:12:23;;;;;;;38.33;19.10;;;;;;;3.77;82.12;97737.80;3754536;77;32735;-89
2020/12/28 16:17:24;;;;;;;36.53;17.87;;;;;;;3.70;82.07;97735.09;3734409;77;98130;-90
2020/12/28 16:22:25;;;;;;;38.20;21.87;;;;;;;3.65;82.02;97746.41;3758765;77;31786;-90
2020/12/28 16:27:27;;;;;;;39.67;18.03;;;;;;;3.51;81.92;97736.38;3753467;77;98141;-90
2020/12/28 16:32:28;;;;;;;40.43;20.60;;;;;;;3.41;81.90;97737.77;3743401;76;31766;-90
2020/12/28 16:37:29;;;;;;;49.07;22.83;;;;;;;3.29;82.01;97731.41;3757767;77;98509;-88
2020/12/28 16:42:30;;;;;;;64.63;28.77;;;;;;;3.24;82.11;97727.73;3763556;77;31884;-86
2020/12/28 16:47:31;;;;;;;63.23;27.70;;;;;;;3.23;82.06;97716.68;3768927;75;98560;-88
2020/12/28 16:52:32;;;;;;;47.33;22.82;;;;;;;3.22;82.14;97718.61;3729220;77;29900;-89
2020/12/28 16:57:33;;;;;;;38.80;19.13;;;;;;;3.30;81.96;97731.59;3749425;77;98310;-86
2020/12/28 17:02:36;;;;;;;33.03;16.60;;;;;;;3.29;81.62;97721.30;3746565;77;28909;-88
2020/12/28 17:07:38;;;;;;;36.50;19.17;;;;;;;3.23;81.60;97701.73;3750543;77;98167;-89
2020/12/28 17:12:38;;;;;;;49.07;26.10;;;;;;;3.16;81.47;97696.34;3755396;77;32474;-89
2020/12/28 17:17:39;;;;;;;45.30;25.43;;;;;;;3.01;81.62;97668.42;3755084;75;98589;-90
2020/12/28 17:22:40;;;;;;;35.53;16.77;;;;;;;3.09;81.45;97696.34;3760242;77;29928;-89
2020/12/28 17:27:41;;;;;;;29.42;15.40;;;;;;;2.99;81.42;97703.36;3746652;75;98170;-90
2020/12/28 17:32:42;;;;;;;31.30;15.37;;;;;;;2.96;81.48;97702.02;3757898;77;27049;-90
2020/12/28 17:37:45;;;;;;;34.93;14.43;;;;;;;2.99;81.56;97709.37;3755646;76;98491;-90
2020/12/28 17:42:46;;;;;;;53.80;24.67;;;;;;;3.01;81.36;97732.25;3763777;77;25965;-91
2020/12/28 17:47:47;;;;;;;37.23;17.47;;;;;;;3.04;81.68;97755.94;3740158;74;98125;-87
2020/12/28 17:52:48;;;;;;;53.27;23.43;;;;;;;3.10;81.35;97731.27;3749881;77;34957;-89
2020/12/28 17:57:51;;;;;;;41.73;19.10;;;;;;;3.08;81.14;97741.77;3752154;77;98100;-89
2020/12/28 18:02:52;;;;;;;33.73;15.93;;;;;;;3.00;81.19;97753.80;3760877;77;35055;-88
2020/12/28 18:07:54;;;;;;;37.07;16.50;;;;;;;2.94;81.27;97756.73;3756297;77;98617;-89
2020/12/28 18:12:55;;;;;;;33.13;16.03;;;;;;;2.93;81.20;97747.61;3753819;77;35058;-91
2020/12/28 18:17:58;;;;;;;35.87;16.60;;;;;;;2.91;81.36;97739.08;3717683;75;98452;-90
2020/12/28 18:22:59;;;;;;;36.40;15.17;;;;;;;2.93;81.29;97736.74;3758364;77;35014;-90
2020/12/28 18:28:00;;;;;;;37.80;16.93;;;;;;;2.98;81.30;97731.70;3760367;75;98474;-89
2020/12/28 18:33:02;;;;;;;36.37;15.43;;;;;;;3.01;81.22;97732.86;3756114;77;34955;-92
2020/12/28 18:38:03;;;;;;;36.60;15.33;;;;;;;3.02;80.90;97729.75;3754532;77;98387;-89
2020/12/28 18:43:04;;;;;;;34.70;14.90;;;;;;;2.95;80.71;97722.96;3701896;77;35090;-90
2020/12/28 18:48:05;;;;;;;32.43;14.43;;;;;;;2.83;80.78;97716.59;3694249;76;98598;-93
2020/12/28 18:53:06;;;;;;;34.08;14.03;;;;;;;2.71;80.88;97706.72;3752024;76;35723;-91
2020/12/28 18:58:07;;;;;;;29.40;13.90;;;;;;;2.60;81.07;97698.61;3759847;77;98453;-88
2020/12/28 19:03:10;;;;;;;32.37;14.97;;;;;;;2.58;81.29;97689.30;3745160;75;35947;-91
2020/12/28 19:08:12;;;;;;;33.73;17.27;;;;;;;2.51;81.36;97684.65;3757791;76;98404;-94
2020/12/28 19:13:22;;;;;;;35.90;16.83;;;;;;;2.50;81.44;97689.89;3744665;77;34927;-92
2020/12/28 19:18:23;;;;;;;30.90;15.80;;;;;;;2.46;81.37;97678.86;3759667;77;98546;-90
2020/12/28 19:23:24;;;;;;;33.90;16.13;;;;;;;2.38;81.51;97688.94;3754173;75;34960;-92
2020/12/28 19:28:27;;;;;;;32.13;16.50;;;;;;;2.27;81.74;97700.95;3740878;77;98274;-91
2020/12/28 19:33:28;;;;;;;33.30;15.17;;;;;;;2.21;81.90;97706.00;3763137;77;35080;-89
2020/12/28 19:38:38;;;;;;;35.10;17.10;;;;;;;2.17;82.05;97706.58;3743428;74;98179;-91
2020/12/28 19:43:39;;;;;;;35.80;17.90;;;;;;;2.20;82.21;97719.34;3755301;77;35015;-91
2020/12/28 19:48:39;;;;;;;39.10;19.83;;;;;;;2.24;82.29;97704.45;3731850;75;98433;-89
2020/12/28 19:53:40;;;;;;;38.37;17.93;;;;;;;2.22;82.34;97712.19;3767615;77;36322;-89
2020/12/28 19:58:41;;;;;;;36.60;18.40;;;;;;;2.15;82.29;97712.98;3759862;76;98347;-90
2020/12/28 20:03:59;;;;;;;35.73;15.77;;;;;;;2.10;82.55;97707.94;3772438;77;35695;-88
2020/12/28 20:09:05;;;;;;;45.10;22.03;;;;;;;2.10;82.69;97707.94;3673736;77;98223;-88
2020/12/28 20:14:10;;;;;;;39.45;18.42;;;;;;;2.16;82.87;97706.95;3772906;75;26723;-88
2020/12/28 20:19:30;;;;;;;42.83;19.47;;;;;;;2.24;82.69;97707.92;3694019;77;98075;-88
2020/12/28 20:24:36;;;;;;;40.60;18.03;;;;;;;2.27;82.59;97695.52;3720863;77;34977;-89
2020/12/28 20:29:47;;;;;;;38.25;18.45;;;;;;;2.26;82.56;97698.05;3732495;75;98415;-87
2020/12/28 20:34:56;;;;;;;47.53;22.07;;;;;;;2.26;82.77;97689.34;3731744;77;35057;-87
2020/12/28 20:40:37;;;;;;;35.37;17.20;;;;;;;2.33;82.78;97685.26;3731059;75;97917;-84
2020/12/28 20:45:51;;;;;;;33.93;16.53;;;;;;;2.33;82.68;97679.83;3772063;75;35011;-88
2020/12/28 20:50:48;;;;;;;;;;;;;;;2.33;82.91;97680.40;3746533;76;98171;-87
2020/12/28 20:56:02;;;;;;;37.47;16.83;;;;;;;2.30;83.07;97677.88;3744168;77;25898;-86
2020/12/28 21:01:03;;;;;;;33.13;15.50;;;;;;;2.25;83.22;97677.51;3745326;75;55503;-91
2020/12/28 21:06:04;;;;;;;32.33;14.50;;;;;;;2.23;83.52;97679.82;3643465;78;98140;-92
2020/12/28 21:11:05;;;;;;;30.40;14.80;;;;;;;2.28;83.79;97672.65;3655613;78;35097;-92
2020/12/28 21:16:12;;;;;;;33.53;14.93;;;;;;;2.36;83.86;97667.42;3643595;76;98218;-92
2020/12/28 21:21:13;;;;;;;40.70;17.37;;;;;;;2.42;84.03;97653.66;3647015;78;97904;-91
2020/12/28 21:26:14;;;;;;;36.47;17.00;;;;;;;2.45;83.98;97647.42;3663351;78;99221;-93
2020/12/28 21:31:18;;;;;;;32.43;15.87;;;;;;;2.50;84.14;97651.89;3652142;78;35026;-91
2020/12/28 21:36:19;;;;;;;40.70;19.65;;;;;;;2.55;84.43;97661.00;3649330;79;98163;-92
2020/12/28 21:41:29;;;;;;;32.13;12.63;;;;;;;2.67;84.34;97633.43;3643935;79;35454;-94
2020/12/28 21:46:30;;;;;;;34.15;14.63;;;;;;;2.81;84.17;97632.04;3667316;78;99034;-91
2020/12/28 21:51:31;;;;;;;34.30;15.00;;;;;;;2.96;84.07;97625.97;3657594;79;35042;-92
2020/12/28 21:56:32;;;;;;;67.43;42.27;;;;;;;3.07;83.90;97621.27;3655936;78;98155;-94
2020/12/28 22:01:44;;;;;;;30.93;13.73;;;;;;;3.14;83.92;97611.71;3672105;78;34999;-93
2020/12/28 22:06:52;;;;;;;28.87;13.10;;;;;;;3.22;83.82;97611.88;3608848;76;98726;-96
2020/12/28 22:11:55;;;;;;;28.03;12.60;;;;;;;3.36;83.75;97591.41;3701832;76;26509;-96
2020/12/28 22:17:07;;;;;;;26.90;13.25;;;;;;;3.55;83.41;97591.66;3738808;76;98239;-95
2020/12/28 22:22:08;;;;;;;25.13;11.43;;;;;;;3.68;83.28;97582.45;3749329;76;25975;-96
2020/12/28 22:27:09;;;;;;;26.77;11.37;;;;;;;3.78;83.03;97566.03;3784296;76;99090;-92
2020/12/28 22:37:59;;;;;;;22.77;9.50;;;;;;;3.92;82.65;97561.84;3673289;76;98179;-95
2020/12/28 22:43:01;;;;;;;26.20;10.43;;;;;;;4.03;82.27;97553.58;3635726;79;35035;-96
2020/12/28 22:48:02;;;;;;;28.60;10.83;;;;;;;4.04;82.18;97548.34;3628138;78;98531;-94
2020/12/28 22:53:03;;;;;;;31.20;14.83;;;;;;;4.23;81.89;97545.82;3647908;79;34987;-94
2020/12/28 22:58:03;;;;;;;28.17;13.77;;;;;;;4.31;81.50;97542.44;3626226;79;98460;-94
2020/12/28 23:03:05;;;;;;;27.67;11.23;;;;;;;4.36;81.44;97537.31;3632263;79;35586;-96
2020/12/28 23:08:06;;;;;;;29.03;10.73;;;;;;;4.39;81.09;97537.09;3641994;79;98584;-94
2020/12/28 23:13:07;;;;;;;22.80;10.13;;;;;;;4.40;80.68;97532.61;3618689;78;54442;-76
2020/12/28 23:18:14;;;;;;;22.35;9.65;;;;;;;4.49;80.30;97532.12;3531822;77;98680;-95
2020/12/28 23:23:13;;;;;;;22.10;9.63;;;;;;;4.59;80.02;97536.06;3709928;77;34046;-96
2020/12/28 23:28:18;;;;;;;19.83;9.60;;;;;;;4.64;80.21;97519.28;3681555;76;97331;-76
2020/12/28 23:33:26;;;;;;;25.67;10.67;;;;;;;4.78;80.29;97530.02;3617382;79;35097;-76
2020/12/28 23:38:47;;;;;;;21.52;9.83;;;;;;;4.82;80.03;97521.21;3557540;80;98530;-76